createdAt,value
2018-12-05T00:00:10.396Z,208.20
2018-12-05T00:02:39.305Z,214.03
2018-12-05T00:05:08.325Z,215.13
2018-12-05T00:07:37.053Z,206.43
2018-12-05T00:10:06.517Z,210.20
2018-12-05T00:12:35.300Z,215.80
2018-12-05T00:15:04.218Z,213.47
2018-12-05T00:17:33.688Z,222.27
2018-12-05T00:20:02.453Z,217.73
2018-12-05T00:22:31.096Z,205.87
2018-12-05T00:24:59.812Z,205.70
2018-12-05T00:27:28.999Z,210.27
2018-12-05T00:29:57.806Z,214.57
2018-12-05T00:32:26.536Z,211.37
2018-12-05T00:34:55.198Z,219.93
2018-12-05T00:37:23.881Z,213.60
2018-12-05T00:39:52.655Z,227.63
2018-12-05T00:42:21.329Z,208.57
2018-12-05T00:44:50.005Z,214.50
2018-12-05T00:47:18.943Z,226.37
2018-12-05T00:49:47.596Z,237.37
2018-12-05T00:52:16.344Z,235.93
2018-12-05T00:54:45.973Z,228.27
2018-12-05T00:57:14.827Z,237.97
2018-12-05T00:59:43.527Z,222.47
2018-12-05T01:02:12.203Z,228.10
2018-12-05T01:04:40.829Z,224.73
2018-12-05T01:07:09.601Z,225.53
2018-12-05T01:09:40.874Z,227.00
2018-12-05T01:12:11.358Z,233.50
2018-12-05T01:14:40.007Z,217.07
2018-12-05T01:17:08.671Z,219.30
2018-12-05T01:19:37.388Z,221.37
2018-12-05T01:22:06.079Z,221.07
2018-12-05T01:24:34.771Z,225.43
2018-12-05T01:27:03.469Z,212.83
2018-12-05T01:29:32.103Z,225.00
2018-12-05T01:32:00.792Z,222.27
2018-12-05T01:34:29.455Z,226.93
2018-12-05T01:36:58.468Z,234.20
2018-12-05T01:39:27.139Z,225.73
2018-12-05T01:41:55.777Z,229.90
2018-12-05T01:44:24.447Z,219.67
2018-12-05T01:46:53.109Z,239.40
2018-12-05T01:49:21.929Z,228.43
2018-12-05T01:51:50.648Z,226.10
2018-12-05T01:54:19.580Z,226.60
2018-12-05T01:56:48.253Z,224.43
2018-12-05T01:59:17.088Z,224.37
2018-12-05T02:01:45.841Z,232.60
2018-12-05T02:04:14.474Z,245.67
2018-12-05T02:06:43.322Z,245.67
2018-12-05T02:09:11.999Z,230.73
2018-12-05T02:11:40.714Z,212.87
2018-12-05T02:14:09.398Z,231.83
2018-12-05T02:16:38.049Z,216.70
2018-12-05T02:19:06.679Z,228.87
2018-12-05T02:21:35.825Z,218.43
2018-12-05T02:24:04.590Z,203.10
2018-12-05T02:26:33.376Z,195.97
2018-12-05T02:29:02.090Z,157.07
2018-12-05T02:31:30.751Z,143.53
2018-12-05T02:33:59.410Z,159.60
2018-12-05T02:36:28.102Z,135.73
2018-12-05T02:38:57.011Z,115.63
2018-12-05T02:41:25.630Z,116.73
2018-12-05T02:43:54.323Z,63.17
2018-12-05T02:46:23.054Z,65.60
2018-12-05T02:48:51.680Z,79.57
2018-12-05T02:51:20.349Z,71.10
2018-12-05T02:53:49.024Z,40.53
2018-12-05T02:56:17.655Z,41.73
2018-12-05T02:58:46.323Z,41.57
2018-12-05T03:01:14.992Z,38.90
2018-12-05T03:03:43.637Z,35.43
2018-12-05T03:06:12.573Z,29.27
2018-12-05T03:08:41.513Z,33.67
2018-12-05T03:11:10.199Z,28.80
2018-12-05T03:13:38.826Z,28.53
2018-12-05T03:16:07.496Z,29.87
2018-12-05T03:18:36.160Z,29.70
2018-12-05T03:21:04.872Z,62.47
2018-12-05T03:23:33.558Z,121.10
2018-12-05T03:26:02.194Z,113.03
2018-12-05T03:28:30.840Z,80.80
2018-12-05T03:30:59.626Z,90.23
2018-12-05T03:33:28.471Z,70.37
2018-12-05T03:35:57.174Z,88.13
2018-12-05T03:38:25.845Z,95.67
2018-12-05T03:40:54.520Z,101.17
2018-12-05T03:43:23.228Z,87.63
2018-12-05T03:45:51.867Z,63.83
2018-12-05T03:48:20.496Z,59.10
2018-12-05T03:50:49.135Z,45.17
2018-12-05T03:53:17.784Z,60.93
2018-12-05T03:55:46.438Z,62.60
2018-12-05T03:58:15.281Z,66.17
2018-12-05T04:00:43.990Z,61.77
2018-12-05T04:03:12.694Z,69.57
2018-12-05T04:05:41.428Z,55.70
2018-12-05T04:08:10.026Z,31.17
2018-12-05T04:10:38.702Z,36.63
2018-12-05T04:13:07.387Z,33.10
2018-12-05T04:15:36.081Z,24.30
2018-12-05T04:18:04.817Z,20.63
2018-12-05T04:20:33.475Z,22.60
2018-12-05T04:23:02.144Z,22.03
2018-12-05T04:25:30.773Z,20.40
2018-12-05T04:27:59.471Z,18.83
2018-12-05T04:30:28.145Z,15.60
2018-12-05T04:32:56.841Z,17.23
2018-12-05T04:35:25.557Z,15.77
2018-12-05T04:37:54.156Z,14.77
2018-12-05T04:40:22.855Z,16.90
2018-12-05T04:42:51.790Z,15.63
2018-12-05T04:45:20.436Z,14.50
2018-12-05T04:47:49.561Z,14.63
2018-12-05T04:50:18.190Z,14.83
2018-12-05T04:52:46.920Z,17.17
2018-12-05T04:55:15.575Z,16.53
2018-12-05T04:57:44.323Z,15.93
2018-12-05T05:00:13.775Z,18.43
2018-12-05T05:02:42.460Z,17.73
2018-12-05T05:05:11.167Z,18.50
2018-12-05T05:07:39.860Z,17.57
2018-12-05T05:10:08.622Z,17.83
2018-12-05T05:12:37.320Z,19.20
2018-12-05T05:15:06.211Z,19.70
2018-12-05T05:17:34.872Z,21.60
2018-12-05T05:20:03.686Z,21.10
2018-12-05T05:22:32.406Z,21.40
2018-12-05T05:25:01.021Z,22.57
2018-12-05T05:27:29.698Z,21.70
2018-12-05T05:29:58.446Z,24.47
2018-12-05T05:32:27.131Z,23.43
2018-12-05T05:34:55.723Z,22.93
2018-12-05T05:37:24.440Z,23.53
2018-12-05T05:39:53.013Z,23.47
2018-12-05T05:42:21.715Z,23.43
2018-12-05T05:44:50.339Z,24.50
2018-12-05T05:47:19.223Z,24.27
2018-12-05T05:49:47.826Z,22.67
2018-12-05T05:52:16.457Z,24.83
2018-12-05T05:54:45.194Z,23.30
2018-12-05T05:57:13.928Z,23.07
2018-12-05T05:59:42.637Z,21.67
2018-12-05T06:02:11.323Z,22.07
2018-12-05T06:04:40.115Z,21.90
2018-12-05T06:07:08.869Z,24.37
2018-12-05T06:09:37.514Z,21.70
2018-12-05T06:12:06.328Z,22.00
2018-12-05T06:14:35.013Z,17.70
2018-12-05T06:17:03.734Z,17.47
2018-12-05T06:19:32.466Z,19.67
2018-12-05T06:22:01.167Z,19.67
2018-12-05T06:24:30.881Z,20.27
2018-12-05T06:26:59.908Z,18.00
2018-12-05T06:29:28.626Z,17.40
2018-12-05T06:31:57.597Z,16.33
2018-12-05T06:34:26.315Z,16.10
2018-12-05T06:36:55.047Z,13.73
2018-12-05T06:39:23.827Z,16.03
2018-12-05T06:41:52.824Z,14.40
2018-12-05T06:44:21.510Z,14.07
2018-12-05T06:46:50.486Z,15.70
2018-12-05T06:49:19.205Z,12.63
2018-12-05T06:52:03.688Z,13.80
2018-12-05T06:54:32.361Z,9.40
2018-12-05T06:57:01.122Z,11.80
2018-12-05T06:59:29.795Z,9.87
2018-12-05T07:01:58.445Z,9.23
2018-12-05T07:04:27.210Z,11.60
2018-12-05T07:06:55.931Z,11.67
2018-12-05T07:09:24.639Z,9.40
2018-12-05T07:11:53.593Z,10.03
2018-12-05T07:14:22.932Z,10.63
2018-12-05T07:16:51.703Z,7.83
2018-12-05T07:19:20.399Z,8.00
2018-12-05T07:21:49.140Z,8.17
2018-12-05T07:24:17.830Z,6.47
2018-12-05T07:26:46.494Z,8.57
2018-12-05T07:29:15.127Z,7.43
2018-12-05T07:31:43.791Z,6.93
2018-12-05T07:34:12.518Z,7.40
2018-12-05T07:36:41.177Z,7.63
2018-12-05T07:39:09.874Z,7.00
2018-12-05T07:41:38.555Z,6.27
2018-12-05T07:44:07.243Z,8.70
2018-12-05T07:46:35.927Z,7.30
2018-12-05T07:49:04.726Z,6.63
2018-12-05T07:51:33.435Z,8.93
2018-12-05T07:54:02.115Z,7.63
2018-12-05T07:56:30.767Z,6.87
2018-12-05T07:58:59.517Z,6.90
2018-12-05T08:01:28.228Z,9.07
2018-12-05T08:03:56.913Z,5.03
2018-12-05T08:06:25.550Z,9.07
2018-12-05T08:08:54.183Z,8.13
2018-12-05T08:11:22.868Z,6.97
2018-12-05T08:13:52.367Z,4.73
2018-12-05T08:16:21.001Z,10.40
2018-12-05T08:18:49.681Z,8.17
2018-12-05T08:21:18.438Z,14.30
2018-12-05T08:23:49.777Z,6.07
2018-12-05T08:26:18.397Z,6.57
2018-12-05T08:28:47.084Z,8.30
2018-12-05T08:31:15.703Z,9.20
2018-12-05T08:33:44.377Z,6.80
2018-12-05T08:36:13.080Z,8.07
2018-12-05T08:38:41.771Z,8.60
2018-12-05T08:41:11.331Z,6.33
2018-12-05T08:43:39.978Z,8.30
2018-12-05T08:46:08.673Z,7.03
2018-12-05T08:48:37.345Z,6.27
2018-12-05T08:51:06.009Z,6.73
2018-12-05T08:53:34.706Z,5.57
2018-12-05T08:56:03.367Z,8.13
2018-12-05T08:58:32.036Z,4.10
2018-12-05T09:01:00.700Z,5.93
2018-12-05T09:03:29.357Z,5.70
2018-12-05T09:05:58.103Z,4.60
2018-12-05T09:08:26.804Z,6.13
2018-12-05T09:10:55.566Z,6.03
2018-12-05T09:13:24.209Z,3.93
2018-12-05T09:15:52.861Z,4.57
2018-12-05T09:18:21.496Z,7.17
2018-12-05T09:20:50.153Z,6.10
2018-12-05T09:23:18.794Z,5.57
2018-12-05T09:25:47.566Z,3.83
2018-12-05T09:28:16.301Z,5.57
2018-12-05T09:30:45.011Z,4.80
2018-12-05T09:33:13.926Z,4.77
2018-12-05T09:35:42.658Z,4.37
2018-12-05T09:38:11.338Z,5.53
2018-12-05T09:40:40.066Z,4.93
2018-12-05T09:43:08.735Z,5.13
2018-12-05T09:45:37.331Z,5.83
2018-12-05T09:48:06.533Z,4.87
2018-12-05T09:50:35.210Z,4.97
2018-12-05T09:53:03.840Z,4.63
2018-12-05T09:55:32.505Z,3.87
2018-12-05T09:58:01.119Z,5.17
2018-12-05T10:00:29.795Z,3.53
2018-12-05T10:02:58.454Z,4.70
2018-12-05T10:05:27.132Z,4.87
2018-12-05T10:07:55.879Z,5.37
2018-12-05T10:10:24.755Z,4.83
2018-12-05T10:12:53.392Z,4.93
2018-12-05T10:15:47.802Z,6.47
2018-12-05T10:18:16.444Z,4.70
2018-12-05T10:20:45.077Z,4.03
2018-12-05T10:23:14.352Z,7.07
2018-12-05T10:25:43.069Z,5.97
2018-12-05T10:28:11.791Z,5.77
2018-12-05T10:30:40.536Z,5.63
2018-12-05T10:33:09.252Z,6.27
2018-12-05T10:35:38.009Z,6.73
2018-12-05T10:38:06.683Z,7.27
2018-12-05T10:40:35.353Z,6.83
2018-12-05T10:43:04.109Z,6.60
2018-12-05T10:45:32.761Z,6.17
2018-12-05T10:48:01.408Z,5.93
2018-12-05T10:50:41.793Z,6.80
2018-12-05T10:53:10.657Z,7.63
2018-12-05T10:55:39.386Z,11.43
2018-12-05T10:58:12.058Z,8.73
2018-12-05T11:00:46.017Z,10.50
2018-12-05T11:03:17.634Z,6.03
2018-12-05T11:05:51.555Z,9.33
2018-12-05T11:08:24.485Z,7.70
2018-12-05T11:10:58.321Z,7.73
2018-12-05T11:13:32.161Z,9.03
2018-12-05T11:16:07.949Z,7.53
2018-12-05T11:18:41.759Z,7.03
2018-12-05T11:21:15.654Z,9.07
2018-12-05T11:23:49.312Z,8.77
2018-12-05T11:26:22.802Z,5.57
2018-12-05T11:28:51.780Z,6.97
2018-12-05T11:31:20.425Z,7.07
2018-12-05T11:33:49.021Z,9.63
2018-12-05T11:36:17.759Z,8.13
2018-12-05T11:38:47.232Z,7.37
2018-12-05T11:41:15.898Z,5.23
2018-12-05T11:43:44.759Z,5.33
2018-12-05T11:46:13.464Z,9.17
2018-12-05T11:48:42.114Z,6.60
2018-12-05T11:51:10.776Z,6.53
2018-12-05T11:53:39.447Z,9.03
2018-12-05T11:56:08.050Z,5.17
2018-12-05T11:58:36.715Z,8.50
2018-12-05T12:01:05.762Z,5.57
2018-12-05T12:03:34.407Z,6.33
2018-12-05T12:06:03.075Z,6.13
2018-12-05T12:08:31.767Z,8.23
2018-12-05T12:11:02.799Z,8.03
2018-12-05T12:13:31.401Z,7.27
2018-12-05T12:16:00.105Z,8.67
2018-12-05T12:18:28.865Z,5.47
2018-12-05T12:20:57.485Z,6.23
2018-12-05T12:23:26.135Z,8.67
2018-12-05T12:25:54.824Z,8.03
2018-12-05T12:28:23.469Z,6.33
2018-12-05T12:30:52.141Z,6.67
2018-12-05T12:33:20.822Z,5.80
2018-12-05T12:35:49.483Z,7.47
2018-12-05T12:38:18.155Z,19.87
2018-12-05T12:40:46.845Z,5.70
2018-12-05T12:43:16.472Z,4.80
2018-12-05T12:45:45.132Z,4.87
2018-12-05T12:48:13.824Z,3.37
2018-12-05T12:50:42.481Z,4.73
2018-12-05T12:53:11.154Z,4.73
2018-12-05T12:55:39.883Z,6.70
2018-12-05T12:58:08.536Z,5.83
2018-12-05T13:00:37.470Z,7.53
2018-12-05T13:03:06.099Z,6.37
2018-12-05T13:05:34.839Z,7.20
2018-12-05T13:08:03.485Z,6.67
2018-12-05T13:10:32.205Z,6.67
2018-12-05T13:13:00.913Z,7.80
2018-12-05T13:15:29.911Z,7.87
2018-12-05T13:17:58.651Z,7.17
2018-12-05T13:20:27.419Z,5.13
2018-12-05T13:22:56.447Z,8.17
2018-12-05T13:25:25.094Z,8.03
2018-12-05T13:27:54.253Z,7.50
2018-12-05T13:30:22.936Z,6.70
2018-12-05T13:32:51.612Z,10.23
2018-12-05T13:35:20.294Z,7.80
2018-12-05T13:37:48.980Z,8.00
2018-12-05T13:40:17.653Z,5.63
2018-12-05T13:42:46.917Z,7.63
2018-12-05T13:45:15.639Z,10.00
2018-12-05T13:47:44.267Z,6.90
2018-12-05T13:50:12.935Z,6.67
2018-12-05T13:52:41.689Z,8.90
2018-12-05T13:55:10.396Z,8.73
2018-12-05T13:57:39.084Z,6.87
2018-12-05T14:00:10.223Z,9.17
2018-12-05T14:02:38.955Z,7.63
2018-12-05T14:05:07.710Z,9.93
2018-12-05T14:07:36.377Z,8.73
2018-12-05T14:10:05.862Z,10.03
2018-12-05T14:12:40.054Z,9.87
2018-12-05T14:15:10.291Z,9.30
2018-12-05T14:17:38.983Z,7.37
2018-12-05T14:20:09.145Z,9.73
2018-12-05T14:22:37.933Z,9.63
2018-12-05T14:25:07.999Z,7.37
2018-12-05T14:27:36.858Z,9.53
2018-12-05T14:30:09.709Z,8.33
2018-12-05T14:32:38.393Z,9.27
2018-12-05T14:35:07.492Z,12.13
2018-12-05T14:37:36.170Z,9.17
2018-12-05T14:40:06.251Z,6.80
2018-12-05T14:42:34.858Z,8.80
2018-12-05T14:45:03.555Z,9.80
2018-12-05T14:47:32.177Z,6.23
2018-12-05T14:50:00.839Z,9.07
2018-12-05T14:52:29.527Z,9.50
2018-12-05T14:54:58.236Z,10.60
2018-12-05T14:57:26.964Z,8.27
2018-12-05T14:59:55.620Z,7.80
2018-12-05T15:13:54.613Z,8.40
2018-12-05T15:16:23.282Z,8.07
2018-12-05T15:18:52.005Z,6.40
2018-12-05T15:21:20.701Z,6.87
2018-12-05T15:23:49.371Z,6.63
2018-12-05T15:26:18.004Z,9.37
2018-12-05T15:28:46.739Z,9.83
2018-12-05T15:31:15.410Z,11.20
2018-12-05T15:33:44.185Z,6.60
2018-12-05T15:36:12.873Z,9.90
2018-12-05T15:38:41.467Z,4.73
2018-12-05T15:41:10.129Z,7.63
2018-12-05T15:43:38.778Z,8.40
2018-12-05T15:46:07.464Z,6.47
2018-12-05T15:48:36.542Z,6.53
2018-12-05T15:51:05.178Z,9.73
2018-12-05T15:53:33.970Z,9.97
2018-12-05T15:56:03.334Z,10.77
2018-12-05T15:58:32.423Z,10.10
2018-12-05T16:01:01.065Z,9.03
2018-12-05T16:03:29.711Z,7.40
2018-12-05T16:05:58.394Z,10.87
2018-12-05T16:08:27.624Z,7.33
2018-12-05T16:10:56.298Z,8.63
2018-12-05T16:13:24.871Z,9.93
2018-12-05T16:15:53.564Z,6.37
2018-12-05T16:18:22.181Z,8.20
2018-12-05T16:20:50.837Z,7.70
2018-12-05T16:23:19.514Z,9.77
2018-12-05T16:25:48.168Z,6.47
2018-12-05T16:28:16.820Z,7.60
2018-12-05T16:30:46.407Z,10.10
2018-12-05T16:33:15.034Z,8.40
2018-12-05T16:35:43.672Z,9.60
2018-12-05T16:38:12.305Z,8.47
2018-12-05T16:40:40.933Z,5.47
2018-12-05T16:43:09.558Z,6.40
2018-12-05T16:45:38.167Z,6.37
2018-12-05T16:48:06.768Z,6.13
2018-12-05T16:50:35.562Z,7.00
2018-12-05T16:53:04.267Z,7.57
2018-12-05T16:55:33.746Z,6.33
2018-12-05T16:58:02.646Z,9.10
2018-12-05T17:00:31.303Z,7.87
2018-12-05T17:02:59.966Z,8.00
2018-12-05T17:05:28.646Z,6.20
2018-12-05T17:07:57.218Z,5.97
2018-12-05T17:10:25.986Z,7.00
2018-12-05T17:12:54.647Z,6.37
2018-12-05T17:15:23.541Z,8.67
2018-12-05T17:17:52.212Z,6.53
2018-12-05T17:20:20.898Z,9.13
2018-12-05T17:24:18.677Z,7.50
2018-12-05T17:26:47.537Z,9.53
2018-12-05T17:29:16.186Z,8.40
2018-12-05T17:31:44.794Z,5.80
2018-12-05T17:34:13.432Z,5.37
2018-12-05T17:36:42.087Z,7.77
2018-12-05T17:39:10.757Z,6.13
2018-12-05T17:41:39.370Z,6.77
2018-12-05T17:44:08.154Z,7.30
2018-12-05T17:46:36.928Z,7.30
2018-12-05T17:49:05.626Z,5.83
2018-12-05T17:51:34.308Z,8.33
2018-12-05T17:54:02.911Z,9.13
2018-12-05T17:56:32.056Z,11.77
2018-12-05T17:59:00.816Z,7.20
2018-12-05T18:01:29.523Z,6.83
2018-12-05T18:03:58.202Z,7.73
2018-12-05T18:06:27.303Z,7.47
2018-12-05T18:08:55.937Z,7.17
2018-12-05T18:11:24.563Z,7.07
2018-12-05T18:13:53.223Z,8.73
2018-12-05T18:16:21.879Z,6.97
2018-12-05T18:18:50.747Z,7.27
2018-12-05T18:21:19.432Z,5.60
2018-12-05T18:23:48.973Z,7.43
2018-12-05T18:26:17.595Z,8.57
2018-12-05T18:28:46.262Z,8.13
2018-12-05T18:31:15.451Z,9.97
2018-12-05T18:33:44.178Z,8.67
2018-12-05T18:36:12.929Z,9.53
2018-12-05T18:38:41.616Z,7.60
2018-12-05T18:41:10.268Z,10.93
2018-12-05T18:43:39.463Z,8.10
2018-12-05T18:46:08.201Z,12.37
2018-12-05T18:48:36.915Z,10.67
2018-12-05T18:51:05.513Z,12.47
2018-12-05T18:53:34.490Z,12.80
2018-12-05T18:56:03.298Z,10.57
2018-12-05T18:58:31.943Z,10.63
2018-12-05T19:01:00.577Z,11.53
2018-12-05T19:03:29.267Z,13.30
2018-12-05T19:05:57.870Z,14.00
2018-12-05T19:08:34.057Z,13.63
2018-12-05T19:10:58.449Z,12.37
2018-12-05T19:13:27.906Z,12.63
2018-12-05T19:15:57.113Z,10.03
2018-12-05T19:18:26.305Z,13.30
2018-12-05T19:22:24.662Z,11.43
2018-12-05T19:24:53.954Z,11.97
2018-12-05T19:27:23.275Z,12.60
2018-12-05T19:29:52.570Z,12.60
2018-12-05T19:32:21.887Z,11.40
2018-12-05T19:34:53.926Z,11.50
2018-12-05T19:37:22.678Z,10.43
2018-12-05T19:39:51.320Z,10.80
2018-12-05T19:42:20.073Z,10.03
2018-12-05T19:44:48.689Z,11.20
2018-12-05T19:47:17.507Z,13.40
2018-12-05T19:49:46.147Z,9.63
2018-12-05T19:52:14.961Z,10.50
2018-12-05T19:54:43.594Z,9.73
2018-12-05T19:57:12.265Z,10.77
2018-12-05T19:59:40.942Z,11.43
2018-12-05T20:02:09.642Z,11.13
2018-12-05T20:04:38.305Z,7.43
2018-12-05T20:07:07.006Z,11.67
2018-12-05T20:09:35.699Z,14.23
2018-12-05T20:12:04.389Z,14.50
2018-12-05T20:14:33.249Z,13.57
2018-12-05T20:17:01.901Z,8.93
2018-12-05T20:19:30.550Z,10.97
2018-12-05T20:21:59.175Z,9.17
2018-12-05T20:24:27.918Z,13.97
2018-12-05T20:26:56.609Z,16.73
2018-12-05T20:29:25.294Z,13.07
2018-12-05T20:31:53.959Z,11.77
2018-12-05T20:34:22.626Z,14.50
2018-12-05T20:36:51.300Z,15.53
2018-12-05T20:39:25.891Z,14.53
2018-12-05T20:42:01.229Z,12.70
2018-12-05T20:44:30.770Z,12.50
2018-12-05T20:46:59.562Z,14.30
2018-12-05T20:49:28.371Z,12.57
2018-12-05T20:51:57.241Z,12.30
2018-12-05T20:54:25.938Z,11.60
2018-12-05T20:56:55.121Z,11.53
2018-12-05T20:59:23.783Z,9.40
2018-12-05T21:01:52.615Z,12.40
2018-12-05T21:04:21.246Z,9.83
2018-12-05T21:06:50.098Z,13.90
2018-12-05T21:09:18.815Z,15.07
2018-12-05T21:11:49.334Z,15.97
2018-12-05T21:14:17.991Z,10.90
2018-12-05T21:16:46.598Z,12.77
2018-12-05T21:19:15.332Z,11.10
2018-12-05T21:22:00.769Z,9.07
2018-12-05T21:24:29.553Z,9.03
2018-12-05T21:26:58.256Z,12.23
2018-12-05T21:29:27.019Z,12.87
2018-12-05T21:31:55.725Z,10.73
2018-12-05T21:34:24.374Z,9.43
2018-12-05T21:36:54.660Z,11.97
2018-12-05T21:39:23.384Z,10.97
2018-12-05T21:41:53.319Z,11.17
2018-12-05T21:44:21.973Z,11.97
2018-12-05T21:46:50.685Z,12.77
2018-12-05T21:49:19.557Z,12.40
2018-12-05T21:51:48.241Z,13.23
2018-12-05T21:54:16.989Z,13.23
2018-12-05T21:56:46.001Z,11.20
2018-12-05T21:59:27.516Z,11.40
2018-12-05T22:01:56.172Z,11.17
2018-12-05T22:04:25.171Z,11.23
2018-12-05T22:06:53.881Z,12.77
2018-12-05T22:09:22.551Z,11.43
2018-12-05T22:12:41.819Z,11.80
2018-12-05T22:15:11.789Z,12.73
2018-12-05T22:17:40.523Z,13.83
2018-12-05T22:20:10.101Z,12.23
2018-12-05T22:22:38.735Z,14.03
2018-12-05T22:25:07.656Z,9.47
2018-12-05T22:27:36.293Z,12.17
2018-12-05T22:30:09.188Z,13.07
2018-12-05T22:32:40.320Z,16.07
2018-12-05T22:35:10.010Z,14.60
2018-12-05T22:37:38.682Z,13.77
2018-12-05T22:40:08.858Z,11.50
2018-12-05T22:42:43.217Z,10.10
2018-12-05T22:45:14.485Z,13.17
2018-12-05T22:47:43.126Z,15.17
2018-12-05T22:50:11.983Z,12.23
2018-12-05T22:52:40.634Z,13.63
2018-12-05T22:55:09.339Z,11.17
2018-12-05T22:57:37.990Z,9.93
2018-12-05T23:00:18.038Z,10.47
2018-12-05T23:02:46.765Z,13.00
2018-12-05T23:05:15.425Z,11.53
2018-12-05T23:07:44.073Z,10.50
2018-12-05T23:10:17.005Z,8.70
2018-12-05T23:12:45.671Z,13.73
2018-12-05T23:15:14.698Z,13.87
2018-12-05T23:17:43.380Z,12.10
2018-12-05T23:20:12.923Z,12.87
2018-12-05T23:22:41.618Z,12.03
2018-12-05T23:25:10.475Z,12.40
2018-12-05T23:27:39.091Z,8.27
2018-12-05T23:30:09.615Z,10.90
2018-12-05T23:32:39.000Z,8.93
2018-12-05T23:35:07.699Z,13.10
2018-12-05T23:37:36.327Z,8.90
2018-12-05T23:40:05.131Z,12.60
2018-12-05T23:42:34.023Z,9.60
2018-12-05T23:45:02.748Z,10.13
2018-12-05T23:47:31.348Z,11.37
2018-12-05T23:49:59.980Z,12.10
2018-12-05T23:52:28.678Z,11.30
2018-12-05T23:54:57.323Z,11.20
2018-12-05T23:57:25.982Z,13.10
2018-12-05T23:59:54.680Z,10.90
